sensor_id;sensor_type;location;lat;lon;timestamp;pressure;altitude;pressure_sealevel;temperature;humidity
79752;BME280;69234;47.446;21.636;2024-01-07T00:00:11;99282.22;;;6.49;100.00
79752;BME280;69234;47.446;21.636;2024-01-07T00:00:42;99281.22;;;6.50;100.00
79752;BME280;69234;47.446;21.636;2024-01-07T00:01:13;99286.56;;;6.50;100.00
79752;BME280;69234;47.446;21.636;2024-01-07T00:01:47;99272.63;;;6.46;100.00
79752;BME280;69234;47.446;21.636;2024-01-07T00:02:19;99270.97;;;6.45;100.00
79752;BME280;69234;47.446;21.636;2024-01-07T00:02:50;99269.97;;;6.46;100.00
79752;BME280;69234;47.446;21.636;2024-01-07T00:03:21;99276.63;;;6.52;100.00
79752;BME280;69234;47.446;21.636;2024-01-07T00:03:52;99279.97;;;6.54;100.00
79752;BME280;69234;47.446;21.636;2024-01-07T00:04:23;99279.97;;;6.54;100.00
79752;BME280;69234;47.446;21.636;2024-01-07T00:04:54;99279.28;;;6.52;100.00
79752;BME280;69234;47.446;21.636;2024-01-07T00:05:25;99279.13;;;6.53;100.00
79752;BME280;69234;47.446;21.636;2024-01-07T00:05:56;99282.66;;;6.54;100.00
79752;BME280;69234;47.446;21.636;2024-01-07T00:06:27;99268.72;;;6.50;100.00
79752;BME280;69234;47.446;21.636;2024-01-07T00:06:58;99277.56;;;6.51;100.00
79752;BME280;69234;47.446;21.636;2024-01-07T00:07:29;99270.56;;;6.50;100.00
79752;BME280;69234;47.446;21.636;2024-01-07T00:08:00;99271.78;;;6.46;100.00
79752;BME280;69234;47.446;21.636;2024-01-07T00:08:30;99269.66;;;6.39;100.00
79752;BME280;69234;47.446;21.636;2024-01-07T00:09:01;99274.88;;;6.41;100.00
79752;BME280;69234;47.446;21.636;2024-01-07T00:09:32;99274.88;;;6.41;100.00
79752;BME280;69234;47.446;21.636;2024-01-07T00:10:03;99260.09;;;6.37;100.00
79752;BME280;69234;47.446;21.636;2024-01-07T00:10:34;99272.22;;;6.41;100.00
79752;BME280;69234;47.446;21.636;2024-01-07T00:11:05;99274.16;;;6.39;100.00
79752;BME280;69234;47.446;21.636;2024-01-07T00:11:36;99267.13;;;6.38;100.00
79752;BME280;69234;47.446;21.636;2024-01-07T00:12:07;99275.56;;;6.43;100.00
79752;BME280;69234;47.446;21.636;2024-01-07T00:12:38;99259.25;;;6.36;100.00
79752;BME280;69234;47.446;21.636;2024-01-07T00:13:09;99268.66;;;6.40;100.00
79752;BME280;69234;47.446;21.636;2024-01-07T00:13:40;99269.53;;;6.41;100.00
79752;BME280;69234;47.446;21.636;2024-01-07T00:14:11;99265.81;;;6.32;100.00
79752;BME280;69234;47.446;21.636;2024-01-07T00:14:42;99259.50;;;6.33;100.00
79752;BME280;69234;47.446;21.636;2024-01-07T00:15:12;99268.22;;;6.35;100.00
79752;BME280;69234;47.446;21.636;2024-01-07T00:15:43;99264.72;;;6.35;100.00
79752;BME280;69234;47.446;21.636;2024-01-07T00:16:14;99257.66;;;6.24;100.00
79752;BME280;69234;47.446;21.636;2024-01-07T00:16:45;99265.63;;;6.24;100.00
79752;BME280;69234;47.446;21.636;2024-01-07T00:17:16;99267.91;;;6.29;100.00
79752;BME280;69234;47.446;21.636;2024-01-07T00:17:47;99275.75;;;6.30;100.00
79752;BME280;69234;47.446;21.636;2024-01-07T00:18:18;99267.06;;;6.28;100.00
79752;BME280;69234;47.446;21.636;2024-01-07T00:18:49;99264.41;;;6.28;100.00
79752;BME280;69234;47.446;21.636;2024-01-07T00:19:20;99259.31;;;6.25;100.00
79752;BME280;69234;47.446;21.636;2024-01-07T00:19:51;99268.63;;;6.31;100.00
79752;BME280;69234;47.446;21.636;2024-01-07T00:20:22;99266.09;;;6.29;100.00
79752;BME280;69234;47.446;21.636;2024-01-07T00:20:53;99259.19;;;6.27;100.00
79752;BME280;69234;47.446;21.636;2024-01-07T00:21:24;99262.00;;;6.25;100.00
79752;BME280;69234;47.446;21.636;2024-01-07T00:21:55;99270.44;;;6.30;100.00
79752;BME280;69234;47.446;21.636;2024-01-07T00:22:26;99259.75;;;6.30;100.00
79752;BME280;69234;47.446;21.636;2024-01-07T00:22:57;99263.16;;;6.32;100.00
79752;BME280;69234;47.446;21.636;2024-01-07T00:23:28;99261.16;;;6.25;100.00
79752;BME280;69234;47.446;21.636;2024-01-07T00:23:59;99267.75;;;6.30;100.00
79752;BME280;69234;47.446;21.636;2024-01-07T00:24:29;99270.84;;;6.26;100.00
79752;BME280;69234;47.446;21.636;2024-01-07T00:25:00;99263.56;;;6.28;100.00
79752;BME280;69234;47.446;21.636;2024-01-07T00:25:32;99265.09;;;6.30;100.00
79752;BME280;69234;47.446;21.636;2024-01-07T00:26:03;99270.56;;;6.29;100.00
79752;BME280;69234;47.446;21.636;2024-01-07T00:26:34;99268.75;;;6.29;100.00
79752;BME280;69234;47.446;21.636;2024-01-07T00:27:05;99264.50;;;6.27;100.00
79752;BME280;69234;47.446;21.636;2024-01-07T00:27:36;99272.13;;;6.31;100.00
79752;BME280;69234;47.446;21.636;2024-01-07T00:28:06;99271.16;;;6.32;100.00
79752;BME280;69234;47.446;21.636;2024-01-07T00:28:37;99261.16;;;6.25;100.00
79752;BME280;69234;47.446;21.636;2024-01-07T00:29:08;99274.66;;;6.33;100.00
79752;BME280;69234;47.446;21.636;2024-01-07T00:29:39;99269.47;;;6.31;100.00
79752;BME280;69234;47.446;21.636;2024-01-07T00:30:11;99268.50;;;6.32;100.00
79752;BME280;69234;47.446;21.636;2024-01-07T00:30:42;99255.88;;;6.34;100.00
79752;BME280;69234;47.446;21.636;2024-01-07T00:31:13;99263.88;;;6.34;100.00
79752;BME280;69234;47.446;21.636;2024-01-07T00:31:44;99268.09;;;6.37;100.00
79752;BME280;69234;47.446;21.636;2024-01-07T00:32:15;99263.00;;;6.34;100.00
79752;BME280;69234;47.446;21.636;2024-01-07T00:32:46;99269.47;;;6.31;100.00
79752;BME280;69234;47.446;21.636;2024-01-07T00:33:17;99271.63;;;6.37;100.00
79752;BME280;69234;47.446;21.636;2024-01-07T00:33:47;99256.13;;;6.31;100.00
79752;BME280;69234;47.446;21.636;2024-01-07T00:34:18;99264.56;;;6.36;100.00
79752;BME280;69234;47.446;21.636;2024-01-07T00:34:49;99262.75;;;6.37;100.00
79752;BME280;69234;47.446;21.636;2024-01-07T00:35:20;99271.63;;;6.37;100.00
79752;BME280;69234;47.446;21.636;2024-01-07T00:35:51;99266.56;;;6.34;100.00
79752;BME280;69234;47.446;21.636;2024-01-07T00:36:22;99269.91;;;6.36;100.00
79752;BME280;69234;47.446;21.636;2024-01-07T00:36:53;99265.69;;;6.34;100.00
79752;BME280;69234;47.446;21.636;2024-01-07T00:37:24;99260.09;;;6.37;100.00
79752;BME280;69234;47.446;21.636;2024-01-07T00:37:55;99255.31;;;6.31;100.00
79752;BME280;69234;47.446;21.636;2024-01-07T00:38:29;99249.75;;;6.23;100.00
79752;BME280;69234;47.446;21.636;2024-01-07T00:39:00;99254.25;;;6.22;100.00
79752;BME280;69234;47.446;21.636;2024-01-07T00:39:30;99252.56;;;6.21;100.00
79752;BME280;69234;47.446;21.636;2024-01-07T00:40:01;99265.09;;;6.30;100.00
79752;BME280;69234;47.446;21.636;2024-01-07T00:40:32;99267.66;;;6.32;100.00
79752;BME280;69234;47.446;21.636;2024-01-07T00:41:03;99267.06;;;6.28;100.00
79752;BME280;69234;47.446;21.636;2024-01-07T00:41:35;99268.50;;;6.32;100.00
79752;BME280;69234;47.446;21.636;2024-01-07T00:42:06;99271.16;;;6.32;100.00
79752;BME280;69234;47.446;21.636;2024-01-07T00:42:37;99265.81;;;6.32;100.00
79752;BME280;69234;47.446;21.636;2024-01-07T00:43:08;99253.22;;;6.34;100.00
79752;BME280;69234;47.446;21.636;2024-01-07T00:43:39;99263.16;;;6.32;100.00
79752;BME280;69234;47.446;21.636;2024-01-07T00:44:10;99264.97;;;6.32;100.00
79752;BME280;69234;47.446;21.636;2024-01-07T00:44:40;99260.34;;;6.34;100.00
79752;BME280;69234;47.446;21.636;2024-01-07T00:45:11;99265.09;;;6.30;100.00
79752;BME280;69234;47.446;21.636;2024-01-07T00:45:42;99256.13;;;6.31;100.00
79752;BME280;69234;47.446;21.636;2024-01-07T00:46:13;99261.22;;;6.34;100.00
79752;BME280;69234;47.446;21.636;2024-01-07T00:46:44;99265.09;;;6.30;100.00
79752;BME280;69234;47.446;21.636;2024-01-07T00:47:15;99260.06;;;6.27;100.00
79752;BME280;69234;47.446;21.636;2024-01-07T00:47:46;99249.91;;;6.21;100.00
79752;BME280;69234;47.446;21.636;2024-01-07T00:48:17;99253.25;;;6.23;100.00
79752;BME280;69234;47.446;21.636;2024-01-07T00:48:48;99258.34;;;6.26;100.00
79752;BME280;69234;47.446;21.636;2024-01-07T00:49:19;99261.25;;;6.23;100.00
79752;BME280;69234;47.446;21.636;2024-01-07T00:49:50;99254.50;;;6.19;100.00
79752;BME280;69234;47.446;21.636;2024-01-07T00:50:21;99257.75;;;6.23;100.00
79752;BME280;69234;47.446;21.636;2024-01-07T00:50:52;99251.84;;;6.19;100.00
79752;BME280;69234;47.446;21.636;2024-01-07T00:51:23;99258.88;;;6.20;100.00
79752;BME280;69234;47.446;21.636;2024-01-07T00:51:53;99251.00;;;6.18;100.00
79752;BME280;69234;47.446;21.636;2024-01-07T00:52:24;99263.66;;;6.26;100.00
79752;BME280;69234;47.446;21.636;2024-01-07T00:52:55;99249.66;;;6.24;100.00
79752;BME280;69234;47.446;21.636;2024-01-07T00:53:26;99258.06;;;6.29;100.00
79752;BME280;69234;47.446;21.636;2024-01-07T00:53:57;99261.31;;;6.33;100.00
79752;BME280;69234;47.446;21.636;2024-01-07T00:54:28;99255.16;;;6.32;100.00
79752;BME280;69234;47.446;21.636;2024-01-07T00:54:59;99255.56;;;6.28;100.00
79752;BME280;69234;47.446;21.636;2024-01-07T00:55:31;99264.41;;;6.28;100.00
79752;BME280;69234;47.446;21.636;2024-01-07T00:56:02;99259.19;;;6.27;100.00
79752;BME280;69234;47.446;21.636;2024-01-07T00:56:33;99256.97;;;6.32;100.00
79752;BME280;69234;47.446;21.636;2024-01-07T00:57:04;99258.66;;;6.33;100.00
79752;BME280;69234;47.446;21.636;2024-01-07T00:57:35;99263.72;;;6.36;100.00
79752;BME280;69234;47.446;21.636;2024-01-07T00:58:06;99268.66;;;6.40;100.00
79752;BME280;69234;47.446;21.636;2024-01-07T00:58:37;99266.41;;;6.36;100.00
79752;BME280;69234;47.446;21.636;2024-01-07T00:59:08;99262.44;;;6.30;100.00
79752;BME280;69234;47.446;21.636;2024-01-07T00:59:39;99265.97;;;6.31;100.00
79752;BME280;69234;47.446;21.636;2024-01-07T01:00:11;99256.66;;;6.25;100.00
79752;BME280;69234;47.446;21.636;2024-01-07T01:00:42;99260.31;;;6.24;100.00
79752;BME280;69234;47.446;21.636;2024-01-07T01:01:13;99267.06;;;6.28;100.00
79752;BME280;69234;47.446;21.636;2024-01-07T01:01:44;99260.31;;;6.24;100.00
79752;BME280;69234;47.446;21.636;2024-01-07T01:02:14;99264.25;;;6.30;100.00
79752;BME280;69234;47.446;21.636;2024-01-07T01:02:46;99250.59;;;6.23;100.00
79752;BME280;69234;47.446;21.636;2024-01-07T01:03:17;99260.91;;;6.28;100.00
79752;BME280;69234;47.446;21.636;2024-01-07T01:03:48;99260.06;;;6.27;100.00
79752;BME280;69234;47.446;21.636;2024-01-07T01:04:20;99254.84;;;6.26;100.00
79752;BME280;69234;47.446;21.636;2024-01-07T01:04:51;99254.72;;;6.27;100.00
79752;BME280;69234;47.446;21.636;2024-01-07T01:05:22;99251.06;;;6.28;100.00
79752;BME280;69234;47.446;21.636;2024-01-07T01:05:53;99247.81;;;6.25;100.00
79752;BME280;69234;47.446;21.636;2024-01-07T01:06:24;99244.06;;;6.27;100.00
79752;BME280;69234;47.446;21.636;2024-01-07T01:06:55;99243.31;;;6.25;100.00
79752;BME280;69234;47.446;21.636;2024-01-07T01:07:26;99244.31;;;6.24;100.00
79752;BME280;69234;47.446;21.636;2024-01-07T01:08:00;99245.25;;;6.23;100.00
79752;BME280;69234;47.446;21.636;2024-01-07T01:08:31;99252.75;;;6.29;100.00
79752;BME280;69234;47.446;21.636;2024-01-07T01:09:02;99251.06;;;6.28;100.00
79752;BME280;69234;47.446;21.636;2024-01-07T01:09:32;99258.66;;;6.33;100.00
79752;BME280;69234;47.446;21.636;2024-01-07T01:10:04;99238.72;;;6.27;100.00
79752;BME280;69234;47.446;21.636;2024-01-07T01:10:35;99251.38;;;6.35;100.00
79752;BME280;69234;47.446;21.636;2024-01-07T01:11:09;99253.91;;;6.36;100.00
79752;BME280;69234;47.446;21.636;2024-01-07T01:11:41;99247.88;;;6.34;100.00
79752;BME280;69234;47.446;21.636;2024-01-07T01:12:12;99247.63;;;6.37;100.00
79752;BME280;69234;47.446;21.636;2024-01-07T01:12:43;99242.34;;;6.26;100.00
79752;BME280;69234;47.446;21.636;2024-01-07T01:13:15;99241.81;;;6.32;100.00
79752;BME280;69234;47.446;21.636;2024-01-07T01:13:46;99240.41;;;6.28;100.00
79752;BME280;69234;47.446;21.636;2024-01-07T01:14:17;99244.94;;;6.37;100.00
79752;BME280;69234;47.446;21.636;2024-01-07T01:14:47;99249.81;;;6.32;100.00
79752;BME280;69234;47.446;21.636;2024-01-07T01:15:18;99245.31;;;6.33;100.00
79752;BME280;69234;47.446;21.636;2024-01-07T01:15:49;99248.25;;;6.30;100.00
79752;BME280;69234;47.446;21.636;2024-01-07T01:16:21;99242.09;;;6.29;100.00
79752;BME280;69234;47.446;21.636;2024-01-07T01:16:51;99236.69;;;6.19;100.00
79752;BME280;69234;47.446;21.636;2024-01-07T01:17:22;99239.94;;;6.23;100.00
79752;BME280;69234;47.446;21.636;2024-01-07T01:17:53;99248.66;;;6.25;100.00
79752;BME280;69234;47.446;21.636;2024-01-07T01:18:24;99241.25;;;6.29;100.00
79752;BME280;69234;47.446;21.636;2024-01-07T01:18:55;99233.66;;;6.24;100.00
79752;BME280;69234;47.446;21.636;2024-01-07T01:19:26;99240.41;;;6.28;100.00
79752;BME280;69234;47.446;21.636;2024-01-07T01:19:57;99230.84;;;6.26;100.00
79752;BME280;69234;47.446;21.636;2024-01-07T01:20:28;99233.09;;;6.30;100.00
79752;BME280;69234;47.446;21.636;2024-01-07T01:20:59;99239.16;;;6.32;100.00
79752;BME280;69234;47.446;21.636;2024-01-07T01:21:30;99238.97;;;6.24;100.00
79752;BME280;69234;47.446;21.636;2024-01-07T01:22:01;99242.09;;;6.29;100.00
79752;BME280;69234;47.446;21.636;2024-01-07T01:22:32;99238.56;;;6.29;100.00
79752;BME280;69234;47.446;21.636;2024-01-07T01:23:03;99231.41;;;6.29;100.00
79752;BME280;69234;47.446;21.636;2024-01-07T01:23:34;99228.63;;;6.31;100.00
79752;BME280;69234;47.446;21.636;2024-01-07T01:24:05;99235.66;;;6.32;100.00
79752;BME280;69234;47.446;21.636;2024-01-07T01:24:37;99245.22;;;6.34;100.00
79752;BME280;69234;47.446;21.636;2024-01-07T01:25:09;99230.06;;;6.35;100.00
79752;BME280;69234;47.446;21.636;2024-01-07T01:25:40;99237.22;;;6.34;100.00
79752;BME280;69234;47.446;21.636;2024-01-07T01:26:11;99232.13;;;6.31;100.00
79752;BME280;69234;47.446;21.636;2024-01-07T01:26:42;99233.09;;;6.30;100.00
79752;BME280;69234;47.446;21.636;2024-01-07T01:27:13;99232.13;;;6.31;100.00
79752;BME280;69234;47.446;21.636;2024-01-07T01:27:46;99223.66;;;6.26;100.00
79752;BME280;69234;47.446;21.636;2024-01-07T01:28:17;99232.97;;;6.32;100.00
79752;BME280;69234;47.446;21.636;2024-01-07T01:28:47;99239.63;;;6.37;100.00
79752;BME280;69234;47.446;21.636;2024-01-07T01:29:18;99240.97;;;6.32;100.00
79752;BME280;69234;47.446;21.636;2024-01-07T01:29:49;99228.63;;;6.31;100.00
79752;BME280;69234;47.446;21.636;2024-01-07T01:30:20;99235.50;;;6.33;100.00
79752;BME280;69234;47.446;21.636;2024-01-07T01:30:51;99226.81;;;6.31;100.00
79752;BME280;69234;47.446;21.636;2024-01-07T01:31:22;99227.91;;;6.29;100.00
79752;BME280;69234;47.446;21.636;2024-01-07T01:31:53;99231.41;;;6.29;100.00
79752;BME280;69234;47.446;21.636;2024-01-07T01:32:24;99233.25;;;6.29;100.00
79752;BME280;69234;47.446;21.636;2024-01-07T01:32:55;99221.72;;;6.28;100.00
79752;BME280;69234;47.446;21.636;2024-01-07T01:33:26;99226.06;;;6.29;100.00
79752;BME280;69234;47.446;21.636;2024-01-07T01:33:57;99232.41;;;6.28;100.00
79752;BME280;69234;47.446;21.636;2024-01-07T01:34:27;99229.72;;;6.28;100.00
79752;BME280;69234;47.446;21.636;2024-01-07T01:34:58;99223.94;;;6.23;100.00
79752;BME280;69234;47.446;21.636;2024-01-07T01:35:29;99225.38;;;6.27;100.00
79752;BME280;69234;47.446;21.636;2024-01-07T01:36:04;99219.06;;;6.28;100.00
79752;BME280;69234;47.446;21.636;2024-01-07T01:36:36;99220.22;;;6.35;100.00
79752;BME280;69234;47.446;21.636;2024-01-07T01:37:09;99220.75;;;6.29;100.00
79752;BME280;69234;47.446;21.636;2024-01-07T01:37:40;99225.25;;;6.29;100.00
79752;BME280;69234;47.446;21.636;2024-01-07T01:38:11;99227.06;;;6.28;100.00
79752;BME280;69234;47.446;21.636;2024-01-07T01:38:42;99223.41;;;6.29;100.00
79752;BME280;69234;47.446;21.636;2024-01-07T01:39:13;99220.31;;;6.24;100.00
79752;BME280;69234;47.446;21.636;2024-01-07T01:39:43;99219.31;;;6.25;100.00
79752;BME280;69234;47.446;21.636;2024-01-07T01:40:17;99226.50;;;6.25;100.00
79752;BME280;69234;47.446;21.636;2024-01-07T01:40:54;99225.50;;;6.26;100.00
79752;BME280;69234;47.446;21.636;2024-01-07T01:41:25;99225.25;;;6.29;100.00
79752;BME280;69234;47.446;21.636;2024-01-07T01:41:56;99217.91;;;6.21;100.00
79752;BME280;69234;47.446;21.636;2024-01-07T01:42:28;99218.59;;;6.23;100.00
79752;BME280;69234;47.446;21.636;2024-01-07T01:42:59;99219.19;;;6.27;100.00
79752;BME280;69234;47.446;21.636;2024-01-07T01:43:30;99206.41;;;6.21;100.00
79752;BME280;69234;47.446;21.636;2024-01-07T01:44:02;99214.31;;;6.32;100.00
79752;BME280;69234;47.446;21.636;2024-01-07T01:44:33;99210.53;;;6.34;100.00
79752;BME280;69234;47.446;21.636;2024-01-07T01:45:04;99212.94;;;6.37;100.00
79752;BME280;69234;47.446;21.636;2024-01-07T01:45:35;99215.88;;;6.34;100.00
79752;BME280;69234;47.446;21.636;2024-01-07T01:46:08;99216.47;;;6.38;100.00
79752;BME280;69234;47.446;21.636;2024-01-07T01:46:39;99211.25;;;6.36;100.00
79752;BME280;69234;47.446;21.636;2024-01-07T01:47:10;99211.25;;;6.36;100.00
79752;BME280;69234;47.446;21.636;2024-01-07T01:47:42;99217.56;;;6.35;100.00
79752;BME280;69234;47.446;21.636;2024-01-07T01:48:14;99212.47;;;6.32;100.00
79752;BME280;69234;47.446;21.636;2024-01-07T01:48:45;99210.81;;;6.31;100.00
79752;BME280;69234;47.446;21.636;2024-01-07T01:49:16;99217.09;;;6.30;100.00
79752;BME280;69234;47.446;21.636;2024-01-07T01:49:47;99213.31;;;6.33;100.00
79752;BME280;69234;47.446;21.636;2024-01-07T01:50:18;99209.56;;;6.35;100.00
79752;BME280;69234;47.446;21.636;2024-01-07T01:50:49;99215.47;;;6.39;100.00
79752;BME280;69234;47.446;21.636;2024-01-07T01:51:21;99202.28;;;6.37;100.00
79752;BME280;69234;47.446;21.636;2024-01-07T01:51:53;99208.78;;;6.45;100.00
79752;BME280;69234;47.446;21.636;2024-01-07T01:52:24;99216.47;;;6.48;100.00
79752;BME280;69234;47.446;21.636;2024-01-07T01:52:56;99218.19;;;6.49;100.00
79752;BME280;69234;47.446;21.636;2024-01-07T01:53:27;99198.22;;;6.43;100.00
79752;BME280;69234;47.446;21.636;2024-01-07T01:53:58;99198.09;;;6.45;100.00
79752;BME280;69234;47.446;21.636;2024-01-07T01:54:30;99216.47;;;6.48;100.00
79752;BME280;69234;47.446;21.636;2024-01-07T01:55:02;99213.81;;;6.48;100.00
79752;BME280;69234;47.446;21.636;2024-01-07T01:55:33;99206.63;;;6.38;100.00
79752;BME280;69234;47.446;21.636;2024-01-07T01:56:05;99207.06;;;6.43;100.00
79752;BME280;69234;47.446;21.636;2024-01-07T01:56:36;99199.31;;;6.40;100.00
79752;BME280;69234;47.446;21.636;2024-01-07T01:57:09;99205.13;;;6.46;100.00
79752;BME280;69234;47.446;21.636;2024-01-07T01:57:46;99208.63;;;6.46;100.00
79752;BME280;69234;47.446;21.636;2024-01-07T01:58:19;99204.28;;;6.45;100.00
79752;BME280;69234;47.446;21.636;2024-01-07T01:58:51;99202.72;;;6.42;100.00
79752;BME280;69234;47.446;21.636;2024-01-07T01:59:22;99198.31;;;6.32;100.00
79752;BME280;69234;47.446;21.636;2024-01-07T01:59:54;99203.13;;;6.38;100.00
79752;BME280;69234;47.446;21.636;2024-01-07T02:00:25;99203.44;;;6.45;100.00
79752;BME280;69234;47.446;21.636;2024-01-07T02:00:57;99193.16;;;6.40;100.00
79752;BME280;69234;47.446;21.636;2024-01-07T02:01:30;99205.13;;;6.46;100.00
79752;BME280;69234;47.446;21.636;2024-01-07T02:02:02;99194.72;;;6.42;100.00
79752;BME280;69234;47.446;21.636;2024-01-07T02:02:34;99201.47;;;6.47;100.00
79752;BME280;69234;47.446;21.636;2024-01-07T02:03:05;99199.78;;;6.46;100.00
79752;BME280;69234;47.446;21.636;2024-01-07T02:03:35;99197.81;;;6.48;100.00
79752;BME280;69234;47.446;21.636;2024-01-07T02:04:08;99205.38;;;6.42;100.00
79752;BME280;69234;47.446;21.636;2024-01-07T02:04:40;99186.28;;;6.37;100.00
79752;BME280;69234;47.446;21.636;2024-01-07T02:05:11;99194.44;;;6.46;100.00
79752;BME280;69234;47.446;21.636;2024-01-07T02:05:45;99193.03;;;6.41;100.00
79752;BME280;69234;47.446;21.636;2024-01-07T02:06:16;99203.75;;;6.51;100.00
79752;BME280;69234;47.446;21.636;2024-01-07T02:06:47;99190.53;;;6.50;100.00
79752;BME280;69234;47.446;21.636;2024-01-07T02:07:18;99201.19;;;6.50;100.00
79752;BME280;69234;47.446;21.636;2024-01-07T02:07:49;99196.84;;;6.49;100.00
79752;BME280;69234;47.446;21.636;2024-01-07T02:08:21;99193.88;;;6.42;100.00
79752;BME280;69234;47.446;21.636;2024-01-07T02:08:52;99197.94;;;6.46;100.00
79752;BME280;69234;47.446;21.636;2024-01-07T02:09:23;99187.81;;;6.40;100.00
79752;BME280;69234;47.446;21.636;2024-01-07T02:09:54;99203.44;;;6.45;100.00
79752;BME280;69234;47.446;21.636;2024-01-07T02:10:25;99200.63;;;6.46;100.00
79752;BME280;69234;47.446;21.636;2024-01-07T02:10:56;99198.78;;;6.47;100.00
79752;BME280;69234;47.446;21.636;2024-01-07T02:11:27;99197.28;;;6.54;100.00
79752;BME280;69234;47.446;21.636;2024-01-07T02:12:05;99200.94;;;6.53;100.00
79752;BME280;69234;47.446;21.636;2024-01-07T02:12:36;99202.88;;;6.51;100.00
79752;BME280;69234;47.446;21.636;2024-01-07T02:13:07;99205.28;;;6.54;100.00
79752;BME280;69234;47.446;21.636;2024-01-07T02:13:38;99212.31;;;6.55;100.00
79752;BME280;69234;47.446;21.636;2024-01-07T02:14:09;99203.59;;;6.53;100.00
79752;BME280;69234;47.446;21.636;2024-01-07T02:14:40;99204.44;;;6.53;100.00
79752;BME280;69234;47.446;21.636;2024-01-07T02:15:11;99190.78;;;6.47;100.00
79752;BME280;69234;47.446;21.636;2024-01-07T02:15:43;99193.34;;;6.48;100.00
79752;BME280;69234;47.446;21.636;2024-01-07T02:16:14;99195.59;;;6.53;100.00
79752;BME280;69234;47.446;21.636;2024-01-07T02:16:45;99207.69;;;6.57;100.00
79752;BME280;69234;47.446;21.636;2024-01-07T02:17:16;99196.44;;;6.53;100.00
79752;BME280;69234;47.446;21.636;2024-01-07T02:17:47;99190.53;;;6.50;100.00
79752;BME280;69234;47.446;21.636;2024-01-07T02:18:18;99203.44;;;6.54;100.00
79752;BME280;69234;47.446;21.636;2024-01-07T02:18:50;99204.31;;;6.55;100.00
79752;BME280;69234;47.446;21.636;2024-01-07T02:19:21;99194.44;;;6.46;100.00
79752;BME280;69234;47.446;21.636;2024-01-07T02:19:52;99206.28;;;6.53;100.00
79752;BME280;69234;47.446;21.636;2024-01-07T02:20:23;99189.69;;;6.49;100.00
79752;BME280;69234;47.446;21.636;2024-01-07T02:20:54;99198.13;;;6.54;100.00
79752;BME280;69234;47.446;21.636;2024-01-07T02:21:25;99199.25;;;6.52;100.00
79752;BME280;69234;47.446;21.636;2024-01-07T02:21:56;99180.13;;;6.47;100.00
79752;BME280;69234;47.446;21.636;2024-01-07T02:22:27;99194.88;;;6.51;100.00
79752;BME280;69234;47.446;21.636;2024-01-07T02:22:58;99196.44;;;6.53;100.00
79752;BME280;69234;47.446;21.636;2024-01-07T02:23:29;99199.81;;;6.55;100.00
79752;BME280;69234;47.446;21.636;2024-01-07T02:24:04;99192.47;;;6.48;100.00
79752;BME280;69234;47.446;21.636;2024-01-07T02:24:35;99191.63;;;6.47;100.00
79752;BME280;69234;47.446;21.636;2024-01-07T02:25:06;99187.69;;;6.41;100.00
79752;BME280;69234;47.446;21.636;2024-01-07T02:25:38;99186.13;;;6.39;100.00
79752;BME280;69234;47.446;21.636;2024-01-07T02:26:09;99194.44;;;6.46;100.00
79752;BME280;69234;47.446;21.636;2024-01-07T02:26:39;99178.28;;;6.37;100.00
79752;BME280;69234;47.446;21.636;2024-01-07T02:27:10;99180.22;;;6.35;100.00
79752;BME280;69234;47.446;21.636;2024-01-07T02:27:41;99179.22;;;6.36;100.00
79752;BME280;69234;47.446;21.636;2024-01-07T02:28:12;99178.09;;;6.29;100.00
79752;BME280;69234;47.446;21.636;2024-01-07T02:28:43;99172.06;;;6.27;100.00
79752;BME280;69234;47.446;21.636;2024-01-07T02:29:14;99184.13;;;6.31;100.00
79752;BME280;69234;47.446;21.636;2024-01-07T02:29:45;99181.00;;;6.26;100.00
79752;BME280;69234;47.446;21.636;2024-01-07T02:30:16;99187.75;;;6.30;100.00
79752;BME280;69234;47.446;21.636;2024-01-07T02:30:47;99184.97;;;6.32;100.00
79752;BME280;69234;47.446;21.636;2024-01-07T02:31:18;99187.38;;;6.35;100.00
79752;BME280;69234;47.446;21.636;2024-01-07T02:31:49;99188.63;;;6.31;100.00
79752;BME280;69234;47.446;21.636;2024-01-07T02:32:20;99179.66;;;6.32;100.00
79752;BME280;69234;47.446;21.636;2024-01-07T02:32:51;99186.81;;;6.31;100.00
79752;BME280;69234;47.446;21.636;2024-01-07T02:33:22;99183.16;;;6.32;100.00
79752;BME280;69234;47.446;21.636;2024-01-07T02:33:53;99185.41;;;6.37;100.00
79752;BME280;69234;47.446;21.636;2024-01-07T02:34:24;99185.16;;;6.40;100.00
79752;BME280;69234;47.446;21.636;2024-01-07T02:34:55;99187.50;;;6.33;100.00
79752;BME280;69234;47.446;21.636;2024-01-07T02:35:26;99163.91;;;6.29;100.00
79752;BME280;69234;47.446;21.636;2024-01-07T02:35:57;99177.56;;;6.35;100.00
79752;BME280;69234;47.446;21.636;2024-01-07T02:36:28;99170.41;;;6.36;100.00
79752;BME280;69234;47.446;21.636;2024-01-07T02:36:59;99175.31;;;6.40;100.00
79752;BME280;69234;47.446;21.636;2024-01-07T02:37:31;99174.34;;;6.41;100.00
79752;BME280;69234;47.446;21.636;2024-01-07T02:38:01;99178.97;;;6.39;100.00
79752;BME280;69234;47.446;21.636;2024-01-07T02:38:32;99173.38;;;6.42;100.00
79752;BME280;69234;47.446;21.636;2024-01-07T02:39:03;99173.38;;;6.42;100.00
79752;BME280;69234;47.446;21.636;2024-01-07T02:39:34;99178.28;;;6.37;100.00
79752;BME280;69234;47.446;21.636;2024-01-07T02:40:06;99174.47;;;6.40;100.00
79752;BME280;69234;47.446;21.636;2024-01-07T02:40:37;99177.88;;;6.42;100.00
79752;BME280;69234;47.446;21.636;2024-01-07T02:41:08;99170.84;;;6.41;100.00
79752;BME280;69234;47.446;21.636;2024-01-07T02:41:39;99166.88;;;6.35;100.00
79752;BME280;69234;47.446;21.636;2024-01-07T02:42:10;99176.03;;;6.42;100.00
79752;BME280;69234;47.446;21.636;2024-01-07T02:42:41;99175.78;;;6.46;100.00
79752;BME280;69234;47.446;21.636;2024-01-07T02:43:12;99168.75;;;6.45;100.00